Time;durP1;ratioP1;P1;durP2;ratioP2;P2;SDS_P1;SDS_P2;PMS_P1;PMS_P2;Temp;Humidity;BMP_temperature;BMP_pressure;BME280_temperature;BME280_humidity;BME280_pressure;Samples;Min_cycle;Max_cycle;Signal;HPM_P1;HPM_P2
2021/08/09 00:00:28;;;;;;;2.77;2.07;;;13.80;98.70;;;;;;5120175;28;20767;-42
2021/08/09 00:02:54;;;;;;;3.23;2.50;;;13.70;98.70;;;;;;5119824;28;20509;-42
2021/08/09 00:05:19;;;;;;;3.80;2.30;;;13.70;98.80;;;;;;5120334;28;20246;-43
2021/08/09 00:07:45;;;;;;;4.17;2.57;;;13.70;98.80;;;;;;5120005;28;20426;-43
2021/08/09 00:10:11;;;;;;;2.87;1.93;;;13.70;98.90;;;;;;5119974;28;20183;-43
2021/08/09 00:12:37;;;;;;;2.20;2.00;;;13.70;99.10;;;;;;5120033;28;20179;-43
2021/08/09 00:15:03;;;;;;;3.20;2.07;;;13.70;99.10;;;;;;5120001;28;20752;-43
2021/08/09 00:17:29;;;;;;;3.37;2.20;;;13.70;99.00;;;;;;5120007;28;20681;-43
2021/08/09 00:19:54;;;;;;;2.67;2.03;;;13.70;99.10;;;;;;5119795;28;20437;-42
2021/08/09 00:22:20;;;;;;;3.60;2.10;;;13.70;99.00;;;;;;5119124;28;20211;-43
2021/08/09 00:24:46;;;;;;;3.67;2.10;;;13.70;99.00;;;;;;5097691;28;20228;-43
2021/08/09 00:27:12;;;;;;;2.90;2.20;;;13.70;98.70;;;;;;5099045;28;20421;-43
2021/08/09 00:29:38;;;;;;;4.57;2.17;;;13.70;98.80;;;;;;5098214;28;20172;-43
2021/08/09 00:32:04;;;;;;;3.63;2.30;;;13.70;98.90;;;;;;5097559;28;20863;-43
2021/08/09 00:34:30;;;;;;;2.77;2.17;;;13.70;99.00;;;;;;5097372;28;20195;-44
2021/08/09 00:36:56;;;;;;;3.40;2.30;;;13.70;99.00;;;;;;5098923;28;20407;-42
2021/08/09 00:39:22;;;;;;;3.70;2.17;;;13.70;98.70;;;;;;5098994;28;20874;-43
2021/08/09 00:41:48;;;;;;;2.53;1.80;;;13.70;98.50;;;;;;5098878;28;20178;-43
2021/08/09 00:44:14;;;;;;;3.13;2.60;;;13.70;98.30;;;;;;5098937;28;20187;-43
2021/08/09 00:46:40;;;;;;;4.43;2.30;;;13.60;98.30;;;;;;5098707;28;20411;-43
2021/08/09 00:49:05;;;;;;;4.87;2.97;;;13.60;98.50;;;;;;5099083;28;20429;-43
2021/08/09 00:51:31;;;;;;;4.93;2.60;;;13.60;98.50;;;;;;5099110;28;20173;-43
2021/08/09 00:53:57;;;;;;;5.13;2.20;;;13.60;98.70;;;;;;5097652;28;20181;-43
2021/08/09 00:56:23;;;;;;;4.20;2.53;;;13.50;98.60;;;;;;5098096;28;20432;-43
2021/08/09 00:58:48;;;;;;;4.53;2.10;;;13.60;98.40;;;;;;5099134;28;20198;-43
2021/08/09 01:01:14;;;;;;;3.17;2.63;;;13.50;98.60;;;;;;5098806;28;20517;-43
2021/08/09 01:03:40;;;;;;;3.60;2.90;;;13.50;98.70;;;;;;5099067;28;20651;-43
2021/08/09 01:06:06;;;;;;;2.97;2.70;;;13.50;98.40;;;;;;5098480;28;20425;-43
2021/08/09 01:09:09;;;;;;;2.40;2.20;;;13.50;98.40;;;;;;5097267;28;20172;-43
2021/08/09 01:11:46;;;;;;;2.57;2.17;;;13.50;98.60;;;;;;5098486;28;20402;-43
2021/08/09 01:14:20;;;;;;;2.67;1.90;;;13.50;98.70;;;;;;5097591;28;20777;-43
2021/08/09 01:16:46;;;;;;;2.70;2.50;;;13.50;98.90;;;;;;5098969;28;20429;-43
2021/08/09 01:19:46;;;;;;;2.03;1.83;;;13.40;99.10;;;;;;5097303;28;20491;-43
2021/08/09 01:22:20;;;;;;;3.40;2.50;;;13.40;99.40;;;;;;5098371;28;20214;-43
2021/08/09 01:25:01;;;;;;;3.53;2.43;;;13.40;99.40;;;;;;5111378;28;20493;-43
2021/08/09 01:27:29;;;;;;;2.60;2.40;;;13.40;99.30;;;;;;5118882;28;20419;-43
2021/08/09 01:29:58;;;;;;;5.90;2.90;;;13.30;99.30;;;;;;5118353;28;20501;-43
2021/08/09 01:32:25;;;;;;;3.53;2.23;;;13.30;99.40;;;;;;5118611;28;20865;-43
2021/08/09 01:34:51;;;;;;;4.30;2.20;;;13.30;99.60;;;;;;5118276;28;20435;-43
2021/08/09 01:37:17;;;;;;;3.50;1.97;;;13.30;99.70;;;;;;5118681;28;20418;-43
2021/08/09 01:39:43;;;;;;;3.20;2.30;;;13.20;99.80;;;;;;5100302;28;20793;-43
2021/08/09 01:42:10;;;;;;;13.10;3.50;;;13.20;99.90;;;;;;5100174;28;20500;-43
2021/08/09 01:44:36;;;;;;;3.43;2.20;;;13.20;99.90;;;;;;5117961;28;20199;-43
2021/08/09 01:47:02;;;;;;;4.60;2.50;;;13.10;99.90;;;;;;5100867;28;20715;-43
2021/08/09 01:49:28;;;;;;;2.67;2.03;;;13.10;99.90;;;;;;5100445;28;20417;-43
2021/08/09 01:51:53;;;;;;;4.10;2.20;;;13.10;99.90;;;;;;5100634;28;20441;-42
2021/08/09 01:54:19;;;;;;;3.53;2.57;;;13.10;99.90;;;;;;5118008;28;20417;-43
2021/08/09 01:56:45;;;;;;;2.67;2.20;;;13.10;99.90;;;;;;5100155;28;20589;-43
2021/08/09 01:59:11;;;;;;;2.70;2.00;;;13.10;99.80;;;;;;5100024;28;20436;-43
2021/08/09 02:01:37;;;;;;;3.20;2.30;;;13.10;99.50;;;;;;5118523;28;20183;-43
2021/08/09 02:04:03;;;;;;;2.93;2.10;;;13.10;99.30;;;;;;5099234;28;20234;-43
2021/08/09 02:06:28;;;;;;;3.33;2.37;;;13.10;99.30;;;;;;5118013;28;20207;-43
2021/08/09 02:08:54;;;;;;;2.60;2.27;;;13.10;99.30;;;;;;5118211;28;20445;-43
2021/08/09 02:11:34;;;;;;;3.10;2.23;;;13.10;99.40;;;;;;5118024;28;20187;-43
2021/08/09 02:14:02;;;;;;;5.80;2.53;;;13.10;99.70;;;;;;5100206;28;20231;-42
2021/08/09 02:16:38;;;;;;;3.23;2.47;;;13.10;99.90;;;;;;5117886;28;20510;-43
2021/08/09 02:19:21;;;;;;;2.90;1.90;;;13.10;99.90;;;;;;5100224;28;20413;-43
2021/08/09 02:22:19;;;;;;;3.23;2.60;;;13.10;99.90;;;;;;5118016;28;20408;-43
2021/08/09 02:25:05;;;;;;;3.00;2.43;;;13.00;99.90;;;;;;5080543;28;20480;-42
2021/08/09 02:27:37;;;;;;;2.57;2.37;;;13.00;99.90;;;;;;5100370;28;20425;-43
2021/08/09 02:30:03;;;;;;;5.10;2.67;;;13.00;99.90;;;;;;5100006;28;20421;-43
2021/08/09 02:32:30;;;;;;;3.23;2.30;;;13.00;99.90;;;;;;5117945;28;20418;-43
2021/08/09 02:34:57;;;;;;;2.77;2.10;;;13.00;99.90;;;;;;5117788;28;20425;-43
2021/08/09 02:37:24;;;;;;;2.67;2.47;;;13.00;99.90;;;;;;5099885;28;20749;-42
2021/08/09 02:39:50;;;;;;;4.23;2.50;;;13.00;99.90;;;;;;5117803;28;20425;-42
2021/08/09 02:42:16;;;;;;;4.13;2.20;;;13.00;99.90;;;;;;5117760;28;20467;-43
2021/08/09 02:44:42;;;;;;;4.37;2.60;;;12.90;99.90;;;;;;5117428;28;20264;-43
2021/08/09 02:47:11;;;;;;;3.47;2.43;;;12.90;99.90;;;;;;5099525;28;20819;-42
2021/08/09 02:49:39;;;;;;;3.47;2.07;;;12.90;99.90;;;;;;5099843;28;20178;-43
2021/08/09 02:52:07;;;;;;;2.87;2.57;;;12.90;99.90;;;;;;5117281;28;20435;-43
2021/08/09 02:54:34;;;;;;;3.83;2.70;;;12.90;99.90;;;;;;5117414;28;20433;-43
2021/08/09 02:57:01;;;;;;;3.03;2.73;;;12.80;99.90;;;;;;5103118;28;20422;-42
2021/08/09 02:59:27;;;;;;;4.83;2.97;;;12.80;99.90;;;;;;5103285;28;20425;-43
2021/08/09 03:01:53;;;;;;;4.33;2.80;;;12.70;99.90;;;;;;5103058;28;20420;-43
2021/08/09 03:04:20;;;;;;;3.23;2.60;;;12.70;99.90;;;;;;5102867;28;20280;-43
2021/08/09 03:06:47;;;;;;;3.93;2.80;;;12.60;99.90;;;;;;5085056;28;20920;-43
2021/08/09 03:09:12;;;;;;;2.70;2.10;;;12.60;99.90;;;;;;5120252;28;20426;-43
2021/08/09 03:11:41;;;;;;;4.80;2.80;;;12.60;99.90;;;;;;5120215;28;20421;-43
2021/08/09 03:14:07;;;;;;;5.63;3.07;;;12.50;99.90;;;;;;5116918;28;20188;-43
2021/08/09 03:16:34;;;;;;;3.50;3.17;;;12.50;99.90;;;;;;5116089;28;20425;-43
2021/08/09 03:19:00;;;;;;;3.20;2.53;;;12.50;99.90;;;;;;5102767;28;20597;-43
2021/08/09 03:21:25;;;;;;;3.27;2.93;;;12.50;99.90;;;;;;5120807;28;20428;-43
2021/08/09 03:23:51;;;;;;;3.13;2.50;;;12.50;99.90;;;;;;5120509;28;20227;-43
2021/08/09 03:26:17;;;;;;;3.00;2.70;;;12.40;99.90;;;;;;5119941;28;20175;-44
2021/08/09 03:28:43;;;;;;;3.57;3.00;;;12.40;99.90;;;;;;5118562;28;20406;-43
2021/08/09 03:31:08;;;;;;;3.90;2.40;;;12.40;99.90;;;;;;5118864;28;20176;-42
2021/08/09 03:33:34;;;;;;;3.80;2.80;;;12.40;99.90;;;;;;5118939;28;20180;-43
2021/08/09 03:36:00;;;;;;;3.37;2.27;;;12.30;99.90;;;;;;5119109;28;20584;-43
2021/08/09 03:38:26;;;;;;;3.30;2.50;;;12.40;99.90;;;;;;5118926;28;20847;-43
2021/08/09 03:40:52;;;;;;;4.23;2.43;;;12.30;99.90;;;;;;5119170;28;20417;-43
2021/08/09 03:43:18;;;;;;;2.93;2.30;;;12.30;99.90;;;;;;5120472;28;20222;-43
2021/08/09 03:45:43;;;;;;;3.00;2.50;;;12.30;99.90;;;;;;5119833;28;20183;-43
2021/08/09 03:48:10;;;;;;;3.73;2.63;;;12.40;99.90;;;;;;5119222;28;20452;-42
2021/08/09 03:50:37;;;;;;;5.70;2.90;;;12.30;99.90;;;;;;5118409;28;20506;-42
2021/08/09 03:53:03;;;;;;;4.33;2.70;;;12.30;99.90;;;;;;5118497;28;20426;-43
2021/08/09 03:55:28;;;;;;;2.97;2.33;;;12.40;99.90;;;;;;5119663;28;20876;-42
2021/08/09 03:57:54;;;;;;;3.60;2.60;;;12.30;99.90;;;;;;5101611;28;20432;-42
2021/08/09 04:00:20;;;;;;;3.20;2.90;;;12.30;99.90;;;;;;5119338;28;20232;-43
2021/08/09 04:02:45;;;;;;;3.10;2.70;;;12.30;99.90;;;;;;5120126;28;20543;-44
2021/08/09 04:05:11;;;;;;;3.40;2.80;;;12.30;99.90;;;;;;5120386;28;20638;-44
2021/08/09 04:07:38;;;;;;;4.20;3.33;;;12.40;99.90;;;;;;5119943;28;20426;-44
2021/08/09 04:10:05;;;;;;;3.10;2.47;;;12.40;99.90;;;;;;5119706;28;20183;-44
2021/08/09 04:12:31;;;;;;;3.03;2.60;;;12.40;99.90;;;;;;5120000;28;20409;-44
2021/08/09 04:14:57;;;;;;;5.00;2.50;;;12.40;99.90;;;;;;5110983;28;20464;-44
2021/08/09 04:17:23;;;;;;;2.93;2.50;;;12.40;99.90;;;;;;5104947;28;20473;-44
2021/08/09 04:19:48;;;;;;;6.77;2.97;;;12.40;99.90;;;;;;5104163;28;20199;-46
2021/08/09 04:22:14;;;;;;;2.60;2.40;;;12.50;99.90;;;;;;5098554;28;20268;-44
2021/08/09 04:24:40;;;;;;;4.33;2.87;;;12.50;99.90;;;;;;5097699;28;20300;-44
2021/08/09 04:27:06;;;;;;;2.70;2.50;;;12.50;99.90;;;;;;5109634;28;20428;-44
2021/08/09 04:29:32;;;;;;;5.27;2.90;;;12.50;99.90;;;;;;5111670;28;20304;-44
2021/08/09 04:31:58;;;;;;;3.73;2.80;;;12.50;99.90;;;;;;5078294;28;20475;-44
2021/08/09 04:34:26;;;;;;;2.93;2.30;;;12.50;99.90;;;;;;5108827;28;20233;-44
2021/08/09 04:36:52;;;;;;;2.70;2.50;;;12.60;99.90;;;;;;5081801;28;20515;-44
2021/08/09 04:39:18;;;;;;;4.03;2.57;;;12.60;99.90;;;;;;5081671;28;20477;-44
2021/08/09 04:41:44;;;;;;;3.03;2.73;;;12.60;99.90;;;;;;5099061;28;20426;-44
2021/08/09 04:44:13;;;;;;;3.60;3.07;;;12.70;99.90;;;;;;5081416;28;20176;-44
2021/08/09 04:46:40;;;;;;;3.70;2.60;;;12.80;99.90;;;;;;5081309;28;20446;-44
2021/08/09 04:49:07;;;;;;;4.80;3.23;;;12.80;99.90;;;;;;5098202;28;20442;-45
2021/08/09 04:51:34;;;;;;;3.87;2.50;;;12.90;99.90;;;;;;5099320;28;20430;-44
2021/08/09 04:54:00;;;;;;;3.27;2.80;;;13.00;99.90;;;;;;5098488;28;20804;-44
2021/08/09 04:56:25;;;;;;;4.10;2.53;;;13.00;99.90;;;;;;5098701;28;20475;-44
2021/08/09 04:58:51;;;;;;;3.20;2.53;;;13.10;99.90;;;;;;5079699;28;20184;-44
2021/08/09 05:01:17;;;;;;;3.93;2.87;;;13.10;99.90;;;;;;5098041;28;20180;-44
2021/08/09 05:03:42;;;;;;;3.20;2.57;;;13.20;99.90;;;;;;5097908;28;20200;-45
2021/08/09 05:06:09;;;;;;;3.10;2.50;;;13.20;99.90;;;;;;5097816;28;20506;-44
2021/08/09 05:08:35;;;;;;;3.70;2.97;;;13.20;99.90;;;;;;5097217;28;20204;-44
2021/08/09 05:11:00;;;;;;;2.60;2.40;;;13.20;99.90;;;;;;5098225;28;20449;-44
2021/08/09 05:13:26;;;;;;;2.70;2.13;;;13.20;99.90;;;;;;5098555;28;20589;-44
2021/08/09 05:15:52;;;;;;;2.60;2.40;;;13.30;99.90;;;;;;5097214;28;20456;-44
2021/08/09 05:18:18;;;;;;;4.93;2.80;;;13.30;99.90;;;;;;5096791;28;20275;-44
2021/08/09 05:20:44;;;;;;;2.97;2.60;;;13.40;99.90;;;;;;5096333;28;20173;-44
2021/08/09 05:23:10;;;;;;;3.10;2.63;;;13.50;99.90;;;;;;5094563;28;20739;-44
2021/08/09 05:25:36;;;;;;;4.20;2.83;;;13.50;99.90;;;;;;5094600;28;20581;-44
2021/08/09 05:28:02;;;;;;;3.40;2.43;;;13.60;99.90;;;;;;5094449;28;20569;-44
2021/08/09 05:30:27;;;;;;;5.80;2.10;;;13.70;99.90;;;;;;5094583;28;20169;-44
2021/08/09 05:32:53;;;;;;;3.30;3.00;;;13.80;99.90;;;;;;5094871;28;20867;-44
2021/08/09 05:35:19;;;;;;;4.20;2.30;;;13.90;99.90;;;;;;5095184;28;20188;-44
2021/08/09 05:37:45;;;;;;;3.77;2.60;;;13.90;99.20;;;;;;5096467;28;20593;-44
2021/08/09 05:40:11;;;;;;;5.40;2.77;;;14.00;99.00;;;;;;5096882;28;20175;-44
2021/08/09 05:42:37;;;;;;;3.17;2.67;;;14.10;99.00;;;;;;5096304;28;20914;-45
2021/08/09 05:45:04;;;;;;;3.60;2.73;;;14.10;98.90;;;;;;5095822;28;20418;-44
2021/08/09 05:47:31;;;;;;;3.40;2.67;;;14.20;98.90;;;;;;5096360;28;20425;-44
2021/08/09 05:49:56;;;;;;;3.50;2.13;;;14.30;98.90;;;;;;5096413;28;20414;-44
2021/08/09 05:52:24;;;;;;;3.20;2.37;;;14.50;98.60;;;;;;5095975;28;20778;-44
2021/08/09 05:54:51;;;;;;;2.97;2.20;;;14.60;98.30;;;;;;5096253;28;20255;-44
2021/08/09 05:57:17;;;;;;;2.70;1.77;;;14.70;97.80;;;;;;5096675;28;20419;-44
2021/08/09 05:59:42;;;;;;;2.30;2.07;;;14.90;97.30;;;;;;5097378;28;20460;-44
2021/08/09 06:02:08;;;;;;;3.93;2.33;;;15.00;97.10;;;;;;5097434;28;20501;-44
2021/08/09 06:04:34;;;;;;;2.97;1.97;;;15.20;96.70;;;;;;5096282;28;20222;-44
2021/08/09 06:06:59;;;;;;;2.40;2.10;;;15.30;96.40;;;;;;5096676;28;20241;-45
2021/08/09 06:09:25;;;;;;;4.80;2.43;;;15.20;96.10;;;;;;5097353;28;20172;-44
2021/08/09 06:11:51;;;;;;;3.10;2.33;;;15.50;96.20;;;;;;5097162;28;20219;-44
2021/08/09 06:14:17;;;;;;;3.40;2.20;;;15.60;96.30;;;;;;5096797;28;20173;-44
2021/08/09 06:16:42;;;;;;;4.60;2.00;;;15.80;95.70;;;;;;5097438;28;20176;-44
2021/08/09 06:19:08;;;;;;;4.53;2.50;;;15.70;95.10;;;;;;5097012;28;20820;-44
2021/08/09 06:21:34;;;;;;;2.97;1.90;;;15.90;95.30;;;;;;5097058;28;20198;-44
2021/08/09 06:23:59;;;;;;;2.80;1.60;;;15.80;94.60;;;;;;5096900;28;20565;-44
2021/08/09 06:26:25;;;;;;;4.60;2.07;;;15.70;94.90;;;;;;5097201;28;20272;-45
2021/08/09 06:28:51;;;;;;;4.17;1.90;;;15.90;94.70;;;;;;5097333;28;20242;-44
2021/08/09 06:31:17;;;;;;;3.60;2.27;;;16.00;94.50;;;;;;5099764;28;20317;-44
2021/08/09 06:33:42;;;;;;;3.00;1.83;;;16.20;94.50;;;;;;5100987;28;20500;-45
2021/08/09 06:36:08;;;;;;;2.40;1.77;;;16.50;94.50;;;;;;5100987;28;20632;-44
2021/08/09 06:38:34;;;;;;;2.93;2.10;;;16.50;94.20;;;;;;5101218;28;20452;-45
2021/08/09 06:41:00;;;;;;;4.20;1.80;;;16.70;93.80;;;;;;5100240;28;20455;-44
2021/08/09 06:43:25;;;;;;;2.63;2.00;;;16.70;93.40;;;;;;5099657;28;20208;-44
2021/08/09 06:45:51;;;;;;;3.10;2.17;;;16.60;94.10;;;;;;5099063;28;20848;-45
2021/08/09 06:48:17;;;;;;;4.97;1.83;;;16.80;94.20;;;;;;5100708;28;20590;-44
2021/08/09 06:50:43;;;;;;;2.60;2.03;;;16.80;93.90;;;;;;5100785;28;20414;-45
2021/08/09 06:53:10;;;;;;;3.03;1.80;;;17.10;94.20;;;;;;5082899;28;20342;-45
2021/08/09 06:55:36;;;;;;;3.30;1.93;;;17.50;93.90;;;;;;5100353;28;20537;-45
2021/08/09 06:58:02;;;;;;;2.70;1.90;;;17.60;93.10;;;;;;5099523;28;20509;-45
2021/08/09 07:00:28;;;;;;;3.67;2.03;;;18.00;93.00;;;;;;5098999;28;20172;-45
2021/08/09 07:02:53;;;;;;;2.87;2.20;;;18.30;92.40;;;;;;5099890;28;20238;-45
2021/08/09 07:05:19;;;;;;;2.70;1.80;;;18.50;92.00;;;;;;5100211;28;20816;-45
2021/08/09 07:07:48;;;;;;;3.10;2.17;;;18.70;91.40;;;;;;5099686;28;20251;-44
2021/08/09 07:10:14;;;;;;;2.90;2.17;;;18.90;91.50;;;;;;5097912;28;20165;-45
2021/08/09 07:12:39;;;;;;;2.30;2.10;;;19.10;90.90;;;;;;5098147;28;20427;-45
2021/08/09 07:15:05;;;;;;;2.67;1.80;;;18.90;90.70;;;;;;5098140;28;20425;-45
2021/08/09 07:17:41;;;;;;;2.17;1.67;;;19.00;90.10;;;;;;5099543;28;20188;-45
2021/08/09 07:20:09;;;;;;;2.33;1.50;;;19.30;89.60;;;;;;5098201;28;20414;-45
2021/08/09 07:22:38;;;;;;;3.80;1.50;;;19.30;89.00;;;;;;5097998;28;20744;-44
2021/08/09 07:25:06;;;;;;;4.07;1.67;;;19.50;88.00;;;;;;5094950;28;20501;-44
2021/08/09 07:27:31;;;;;;;2.57;1.50;;;19.70;88.10;;;;;;5095834;28;20494;-44
2021/08/09 07:29:57;;;;;;;2.90;1.40;;;19.90;88.30;;;;;;5061355;28;20517;-44
2021/08/09 07:32:23;;;;;;;2.50;1.30;;;20.10;87.00;;;;;;5097133;28;20198;-44
2021/08/09 07:34:48;;;;;;;2.50;1.50;;;20.00;86.20;;;;;;5097016;28;20180;-44
2021/08/09 07:37:14;;;;;;;3.37;1.87;;;20.20;85.60;;;;;;5098005;28;20521;-44
2021/08/09 07:39:40;;;;;;;5.60;1.80;;;20.30;84.60;;;;;;5098159;28;20521;-44
2021/08/09 07:42:06;;;;;;;2.90;1.70;;;20.50;83.50;;;;;;5097259;28;20585;-44
2021/08/09 07:44:32;;;;;;;3.77;1.43;;;20.70;83.80;;;;;;5081152;28;20512;-44
2021/08/09 07:46:58;;;;;;;2.27;1.70;;;20.70;82.80;;;;;;5097669;28;20414;-45
2021/08/09 07:49:24;;;;;;;3.97;1.83;;;20.50;83.10;;;;;;5097573;28;20604;-44
2021/08/09 07:51:50;;;;;;;1.60;1.27;;;20.90;83.30;;;;;;5098504;28;20450;-44
2021/08/09 07:54:19;;;;;;;2.63;1.57;;;21.30;83.40;;;;;;5098525;28;20267;-45
2021/08/09 07:56:45;;;;;;;3.00;1.30;;;21.10;80.50;;;;;;5098175;28;20495;-44
2021/08/09 07:59:11;;;;;;;3.63;2.00;;;21.40;80.40;;;;;;5078204;28;20438;-44
2021/08/09 08:01:37;;;;;;;3.03;1.83;;;21.50;79.00;;;;;;5096488;28;20589;-43
2021/08/09 08:04:02;;;;;;;3.20;1.30;;;21.50;79.90;;;;;;5077162;28;20568;-43
2021/08/09 08:06:28;;;;;;;6.57;1.90;;;21.40;78.40;;;;;;5094415;28;20219;-44
2021/08/09 08:08:54;;;;;;;3.30;1.47;;;21.50;78.30;;;;;;5090514;28;20172;-44
2021/08/09 08:11:19;;;;;;;2.30;1.53;;;21.60;77.70;;;;;;5115696;28;20609;-44
2021/08/09 08:13:45;;;;;;;3.30;1.70;;;21.70;77.20;;;;;;5096816;28;20462;-44
2021/08/09 08:16:11;;;;;;;2.07;1.30;;;21.50;76.90;;;;;;5116721;28;20292;-44
2021/08/09 08:18:36;;;;;;;2.23;1.70;;;21.80;78.10;;;;;;5117878;28;20168;-44
2021/08/09 08:21:02;;;;;;;1.47;1.10;;;22.20;76.00;;;;;;5117989;28;20172;-44
2021/08/09 08:23:29;;;;;;;2.27;1.47;;;22.50;75.50;;;;;;5056481;28;1225514;-44
2021/08/09 08:25:54;;;;;;;2.60;1.20;;;22.80;75.00;;;;;;5118049;28;20573;-45
2021/08/09 08:28:20;;;;;;;2.60;1.20;;;23.20;71.80;;;;;;5118357;28;20416;-44
2021/08/09 08:30:46;;;;;;;3.00;1.40;;;23.00;69.50;;;;;;5118734;28;20172;-44
2021/08/09 08:33:12;;;;;;;3.50;1.33;;;22.80;68.50;;;;;;5117904;28;20569;-45
2021/08/09 08:35:38;;;;;;;5.37;1.40;;;23.00;69.00;;;;;;5099651;28;20443;-44
2021/08/09 08:38:03;;;;;;;1.87;1.50;;;23.30;69.20;;;;;;5084094;28;20237;-44
2021/08/09 08:40:29;;;;;;;2.13;1.53;;;23.10;67.10;;;;;;5101278;28;20569;-44
2021/08/09 08:42:55;;;;;;;2.73;1.30;;;23.20;64.50;;;;;;5101238;28;20522;-45
2021/08/09 08:45:22;;;;;;;2.10;1.60;;;23.20;64.20;;;;;;5118947;28;20455;-44
2021/08/09 08:47:48;;;;;;;1.70;1.00;;;23.90;61.80;;;;;;5118882;28;20429;-44
2021/08/09 08:50:17;;;;;;;2.60;1.20;;;24.30;62.00;;;;;;5118818;28;20413;-45
2021/08/09 08:52:47;;;;;;;2.70;1.23;;;24.60;60.70;;;;;;5118452;28;20739;-45
2021/08/09 08:55:16;;;;;;;3.97;1.00;;;24.80;59.40;;;;;;5117412;28;20464;-44
2021/08/09 08:57:42;;;;;;;2.70;1.40;;;24.80;56.90;;;;;;5117985;28;20823;-44
2021/08/09 09:00:08;;;;;;;1.70;1.20;;;25.00;56.60;;;;;;5118417;28;20481;-45
2021/08/09 09:02:36;;;;;;;2.57;1.23;;;25.30;56.40;;;;;;5099293;28;20478;-45
2021/08/09 09:05:07;;;;;;;2.40;1.37;;;25.40;56.60;;;;;;5117725;28;20421;-45
2021/08/09 09:07:33;;;;;;;1.80;1.27;;;25.70;54.50;;;;;;5118082;28;20495;-44
2021/08/09 09:10:26;;;;;;;2.03;1.60;;;25.80;54.40;;;;;;5117828;28;20421;-45
2021/08/09 09:13:06;;;;;;;1.77;1.10;;;26.10;53.70;;;;;;5118832;28;20413;-47
2021/08/09 09:15:34;;;;;;;1.80;1.00;;;25.80;54.50;;;;;;5117937;28;20424;-45
2021/08/09 09:17:59;;;;;;;3.13;1.23;;;26.00;53.50;;;;;;5099156;28;20430;-45
2021/08/09 09:20:27;;;;;;;3.60;1.30;;;26.10;53.50;;;;;;5117387;28;20922;-46
2021/08/09 09:23:15;;;;;;;2.30;1.17;;;26.30;53.40;;;;;;5116801;28;20212;-46
2021/08/09 09:25:41;;;;;;;1.60;1.33;;;26.00;54.10;;;;;;5096683;28;20495;-45
2021/08/09 09:28:29;;;;;;;2.57;1.20;;;26.20;54.70;;;;;;5078567;28;20411;-45
2021/08/09 09:31:13;;;;;;;2.10;1.50;;;26.40;53.60;;;;;;5096863;28;20820;-45
2021/08/09 09:33:46;;;;;;;2.50;1.50;;;26.70;54.20;;;;;;5096994;28;20407;-45
2021/08/09 09:36:12;;;;;;;2.50;1.47;;;26.40;53.80;;;;;;5079227;28;20418;-45
2021/08/09 09:38:44;;;;;;;2.27;1.40;;;26.30;54.50;;;;;;5097658;28;20858;-45
2021/08/09 09:41:11;;;;;;;3.63;1.43;;;27.30;54.20;;;;;;5078853;28;20414;-45
2021/08/09 09:43:46;;;;;;;3.87;1.60;;;27.90;53.80;;;;;;5095837;28;20465;-46
2021/08/09 09:46:28;;;;;;;3.33;2.40;;;27.30;52.60;;;;;;5096464;28;20410;-45
2021/08/09 09:49:02;;;;;;;3.33;2.13;;;27.40;52.90;;;;;;5078225;28;20406;-45
2021/08/09 09:51:28;;;;;;;2.80;1.73;;;27.80;52.40;;;;;;5095790;28;21036;-47
2021/08/09 09:53:54;;;;;;;3.90;1.87;;;28.20;51.40;;;;;;5095244;28;20426;-45
2021/08/09 09:56:20;;;;;;;2.03;1.60;;;29.40;51.20;;;;;;5076793;28;20402;-45
2021/08/09 09:58:47;;;;;;;2.13;1.47;;;30.60;49.20;;;;;;5093213;28;20234;-46
2021/08/09 10:01:13;;;;;;;2.17;1.40;;;30.00;49.70;;;;;;5092712;28;20421;-46
2021/08/09 10:03:41;;;;;;;3.33;1.70;;;30.50;49.20;;;;;;5091993;28;20458;-46
2021/08/09 10:06:08;;;;;;;2.67;1.97;;;30.80;48.70;;;;;;5093386;28;20211;-46
2021/08/09 10:08:43;;;;;;;3.53;1.97;;;31.10;46.90;;;;;;5093528;28;20501;-46
2021/08/09 10:11:10;;;;;;;3.30;1.60;;;31.80;46.60;;;;;;5093117;28;20384;-46
2021/08/09 10:13:37;;;;;;;2.60;2.07;;;31.70;45.50;;;;;;5092233;28;20415;-46
2021/08/09 10:16:05;;;;;;;3.50;2.00;;;31.30;45.00;;;;;;5075948;28;20633;-47
2021/08/09 10:18:35;;;;;;;1.83;1.40;;;31.90;45.50;;;;;;5096414;28;20702;-47
2021/08/09 10:21:03;;;;;;;2.27;1.77;;;32.80;44.70;;;;;;5078880;28;20418;-46
2021/08/09 10:23:43;;;;;;;2.90;1.67;;;31.60;44.70;;;;;;5080897;28;20856;-46
2021/08/09 10:26:32;;;;;;;2.13;1.70;;;32.10;44.30;;;;;;5115500;28;20773;-48
2021/08/09 10:29:08;;;;;;;2.23;1.50;;;32.30;43.30;;;;;;5100220;28;20429;-45
2021/08/09 10:31:39;;;;;;;2.40;1.67;;;32.00;43.80;;;;;;5115894;28;20409;-45
2021/08/09 10:34:10;;;;;;;4.00;1.70;;;31.10;44.30;;;;;;5115847;28;20467;-48
2021/08/09 10:37:11;;;;;;;3.60;1.90;;;31.00;45.10;;;;;;5080611;28;20434;-48
2021/08/09 10:39:45;;;;;;;1.80;1.40;;;31.10;45.60;;;;;;5113570;28;20413;-48
2021/08/09 10:42:32;;;;;;;3.03;1.73;;;31.40;44.10;;;;;;5115006;28;20582;-48
2021/08/09 10:44:58;;;;;;;4.23;1.83;;;31.90;43.80;;;;;;5098604;28;20821;-48
2021/08/09 10:47:45;;;;;;;3.13;1.83;;;31.60;43.40;;;;;;5115492;28;20437;-48
2021/08/09 10:50:31;;;;;;;2.57;1.60;;;31.50;42.80;;;;;;5116490;28;20416;-48
2021/08/09 10:52:58;;;;;;;1.83;1.67;;;31.10;43.40;;;;;;5116733;28;20865;-48
2021/08/09 10:55:33;;;;;;;3.60;1.57;;;31.10;43.60;;;;;;5115214;28;20418;-48
2021/08/09 10:58:03;;;;;;;2.40;1.70;;;31.20;43.50;;;;;;5115630;28;20413;-48
2021/08/09 11:00:38;;;;;;;2.40;1.80;;;30.90;43.40;;;;;;5113538;28;20421;-48
2021/08/09 11:03:06;;;;;;;2.40;1.80;;;32.60;42.00;;;;;;5096708;28;20464;-48
2021/08/09 11:05:32;;;;;;;1.90;1.50;;;33.50;39.80;;;;;;5113195;28;20766;-48
2021/08/09 11:08:21;;;;;;;5.17;1.97;;;31.60;40.50;;;;;;5113246;28;20652;-48
2021/08/09 11:10:58;;;;;;;2.30;1.80;;;32.20;40.90;;;;;;5099485;28;20416;-47
2021/08/09 11:13:25;;;;;;;3.67;1.73;;;32.90;40.60;;;;;;5113923;28;20421;-48
2021/08/09 11:15:59;;;;;;;3.53;2.10;;;33.90;40.40;;;;;;5116684;28;20403;-48
2021/08/09 11:18:27;;;;;;;4.23;2.00;;;33.50;39.70;;;;;;5120070;28;20876;-48
2021/08/09 11:21:11;;;;;;;2.33;1.53;;;33.80;40.20;;;;;;5119810;28;20422;-46
2021/08/09 11:23:41;;;;;;;2.37;1.53;;;33.30;39.60;;;;;;5120532;28;20575;-46
2021/08/09 11:26:07;;;;;;;2.00;1.77;;;33.80;38.90;;;;;;5119510;28;20475;-46
2021/08/09 11:28:33;;;;;;;2.40;1.87;;;34.30;38.20;;;;;;5101324;28;20813;-46
2021/08/09 11:31:02;;;;;;;3.00;2.03;;;33.80;37.90;;;;;;5120025;28;20396;-46
2021/08/09 11:33:38;;;;;;;2.37;1.60;;;33.80;36.90;;;;;;5120139;28;20187;-46
2021/08/09 11:36:07;;;;;;;2.73;1.63;;;33.50;37.90;;;;;;5119732;28;20411;-46
2021/08/09 11:38:47;;;;;;;3.20;2.03;;;34.10;37.00;;;;;;5101512;28;20868;-46
2021/08/09 11:41:16;;;;;;;2.27;1.80;;;33.50;37.00;;;;;;5119657;28;20890;-46
2021/08/09 11:43:43;;;;;;;3.60;1.70;;;32.90;38.10;;;;;;5119463;28;20453;-46
2021/08/09 11:46:17;;;;;;;2.07;1.80;;;31.60;38.50;;;;;;5120336;28;20384;-46
2021/08/09 11:48:45;;;;;;;2.30;1.80;;;30.90;39.50;;;;;;5119019;28;20826;-46
2021/08/09 11:51:30;;;;;;;2.00;1.60;;;30.50;40.40;;;;;;5100800;28;20384;-46
2021/08/09 11:53:57;;;;;;;3.07;2.00;;;30.10;40.60;;;;;;5119209;28;20407;-46
2021/08/09 11:56:30;;;;;;;2.80;1.80;;;29.90;40.00;;;;;;5118948;28;20455;-46
2021/08/09 11:58:59;;;;;;;2.57;1.57;;;29.00;40.30;;;;;;5118756;28;20410;-46
2021/08/09 12:01:30;;;;;;;2.57;1.80;;;28.60;41.70;;;;;;5118852;28;20422;-46
2021/08/09 12:04:18;;;;;;;3.00;1.70;;;29.70;42.20;;;;;;5117429;28;20432;-46
2021/08/09 12:06:49;;;;;;;2.37;1.67;;;30.20;40.10;;;;;;5118233;28;20410;-46
2021/08/09 12:09:17;;;;;;;1.97;1.70;;;30.40;39.10;;;;;;5119621;28;20418;-47
2021/08/09 12:11:44;;;;;;;2.43;1.87;;;31.30;39.70;;;;;;5120106;28;20732;-46
2021/08/09 12:14:12;;;;;;;3.03;1.80;;;31.90;38.50;;;;;;5119719;28;20396;-46
2021/08/09 12:16:49;;;;;;;2.60;1.67;;;33.10;37.80;;;;;;5119772;28;20399;-46
2021/08/09 12:19:19;;;;;;;2.80;1.60;;;33.80;36.60;;;;;;5119491;28;20490;-47
2021/08/09 12:21:46;;;;;;;2.00;1.80;;;32.70;36.60;;;;;;5119086;28;20813;-46
2021/08/09 12:24:21;;;;;;;2.20;1.70;;;31.80;36.70;;;;;;5119448;28;20452;-46
2021/08/09 12:26:48;;;;;;;2.17;1.83;;;30.10;37.90;;;;;;5118969;28;20394;-46
2021/08/09 12:29:19;;;;;;;2.67;1.73;;;28.10;39.20;;;;;;5117232;28;20420;-46
2021/08/09 12:31:46;;;;;;;3.00;1.70;;;27.30;41.00;;;;;;5118152;28;20497;-46
2021/08/09 12:34:17;;;;;;;2.80;2.40;;;27.50;41.60;;;;;;5100869;28;20452;-46
2021/08/09 12:36:43;;;;;;;3.80;2.13;;;27.60;42.20;;;;;;5118037;28;20413;-47
2021/08/09 12:39:11;;;;;;;3.23;1.90;;;27.50;41.30;;;;;;5117865;28;20404;-46
2021/08/09 12:41:37;;;;;;;2.03;1.60;;;27.30;41.80;;;;;;5067183;28;20421;-47
2021/08/09 12:44:05;;;;;;;2.23;1.70;;;26.90;42.90;;;;;;5119250;28;20496;-46
2021/08/09 12:46:32;;;;;;;3.97;1.97;;;27.00;42.60;;;;;;5106645;28;20512;-47
2021/08/09 12:48:58;;;;;;;4.43;1.70;;;27.00;42.20;;;;;;5080388;28;20433;-46
2021/08/09 12:51:24;;;;;;;4.53;2.20;;;26.20;42.30;;;;;;5062412;28;20407;-47